Holder, Florida
Current Conditions -  °F | °C
As of 12:35 AM on Sunday 21 Dec 2014 (Local Time) from KCGC Reporting Station
Broken Clouds Broken Clouds  
Wind Chill: 16°   Ceiling: 9000
Heat Index: 16°   Visibility: 10mi
Dew Point: 15°   Wind: 6mph
Humidity: 94%   Direction: 90°E
Pressure: 30.08"   Gusts: NA
Location:  28.97°N, 82.42°W
Report Text: KCGC 210535Z AUTO 09005KT 10SM SCT065 BKN090 16/15 A3008 RMK AO2
Loading
Personal Weather Stations






























Interactive Weather Map New forecast layout! Learn more

10-Day Weather Forecast

Advertisements
Track Severe Weather on mobile